createdAt,value
2018-06-22T00:00:03.339Z,30.90
2018-06-22T00:02:35.128Z,30.80
2018-06-22T00:05:06.976Z,30.80
2018-06-22T00:07:38.536Z,30.90
2018-06-22T00:10:10.396Z,30.80
2018-06-22T00:12:42.241Z,30.80
2018-06-22T00:15:14.063Z,30.80
2018-06-22T00:17:45.655Z,30.70
2018-06-22T00:20:17.436Z,30.70
2018-06-22T00:22:49.143Z,30.70
2018-06-22T00:25:21.446Z,30.70
2018-06-22T00:27:53.206Z,30.60
2018-06-22T00:32:55.807Z,30.60
2018-06-22T00:35:27.823Z,30.50
2018-06-22T00:37:59.522Z,30.60
2018-06-22T00:40:31.127Z,30.50
2018-06-22T00:43:02.735Z,30.60
2018-06-22T00:45:34.900Z,30.50
2018-06-22T00:53:16.772Z,30.40
2018-06-22T00:55:48.499Z,30.30
2018-06-22T00:58:21.273Z,30.30
2018-06-22T01:00:53.181Z,30.40
2018-06-22T01:03:24.579Z,30.30
2018-06-22T01:05:56.543Z,30.40
2018-06-22T01:08:28.169Z,30.40
2018-06-22T01:11:00.342Z,30.40
2018-06-22T01:13:32.051Z,30.40
2018-06-22T01:16:03.610Z,30.40
2018-06-22T01:18:35.258Z,30.40
2018-06-22T01:23:37.866Z,30.30
2018-06-22T01:26:09.803Z,30.30
2018-06-22T01:31:12.982Z,30.30
2018-06-22T01:33:44.574Z,30.30
2018-06-22T01:36:16.133Z,30.30
2018-06-22T01:38:47.879Z,30.30
2018-06-22T01:41:19.859Z,30.30
2018-06-22T01:43:51.226Z,30.30
2018-06-22T01:46:23.361Z,30.30
2018-06-22T01:48:54.835Z,30.30
2018-06-22T01:51:26.635Z,30.20
2018-06-22T01:53:58.207Z,30.30
2018-06-22T01:56:30.049Z,30.30
2018-06-22T01:59:01.923Z,30.30
2018-06-22T02:01:33.640Z,30.20
2018-06-22T02:04:05.429Z,30.20
2018-06-22T02:06:37.937Z,30.20
2018-06-22T02:11:45.295Z,30.30
2018-06-22T02:14:16.834Z,30.30
2018-06-22T02:16:48.542Z,30.30
2018-06-22T02:19:20.100Z,30.40
2018-06-22T02:21:52.324Z,30.40
2018-06-22T02:24:23.833Z,30.50
2018-06-22T02:26:55.842Z,30.50
2018-06-22T02:29:27.548Z,30.60
2018-06-22T02:31:59.295Z,30.50
2018-06-22T02:34:31.398Z,30.70
2018-06-22T02:37:03.881Z,30.80
2018-06-22T02:39:35.459Z,30.80
2018-06-22T02:42:08.316Z,30.80
2018-06-22T02:44:40.305Z,30.90
2018-06-22T02:47:12.037Z,31.00
2018-06-22T02:52:15.249Z,31.10
2018-06-22T02:54:46.879Z,31.20
2018-06-22T02:57:18.874Z,31.40
2018-06-22T02:59:52.274Z,31.40
2018-06-22T03:02:24.131Z,31.60
2018-06-22T03:07:27.047Z,31.60
2018-06-22T03:09:58.797Z,31.70
2018-06-22T03:12:30.529Z,31.80
2018-06-22T03:15:02.293Z,31.90
2018-06-22T03:17:34.630Z,32.00
2018-06-22T03:20:06.150Z,32.20
2018-06-22T03:22:37.879Z,32.30
2018-06-22T03:25:09.665Z,32.40
2018-06-22T03:30:12.706Z,32.70
2018-06-22T03:32:44.819Z,32.70
2018-06-22T03:35:16.198Z,32.80
2018-06-22T03:37:47.881Z,32.90
2018-06-22T03:42:50.237Z,33.20
2018-06-22T03:45:21.934Z,33.30
2018-06-22T03:47:53.649Z,33.40
2018-06-22T03:50:25.791Z,33.60
2018-06-22T03:52:57.627Z,33.70
2018-06-22T03:55:29.251Z,33.80
2018-06-22T04:00:33.342Z,34.10
2018-06-22T04:03:06.109Z,34.20
2018-06-22T04:05:38.839Z,34.40
2018-06-22T04:10:41.862Z,34.70
2018-06-22T04:13:14.049Z,34.80
2018-06-22T04:15:45.902Z,35.00
2018-06-22T04:18:18.179Z,35.30
2018-06-22T04:20:50.221Z,35.40
2018-06-22T04:23:22.408Z,35.60
2018-06-22T04:25:54.322Z,35.90
2018-06-22T04:28:26.555Z,36.10
2018-06-22T04:30:58.712Z,36.20
2018-06-22T04:33:30.913Z,36.40
2018-06-22T04:36:02.790Z,36.50
2018-06-22T04:38:34.877Z,36.60
2018-06-22T04:43:37.859Z,37.00
2018-06-22T04:46:09.557Z,37.30
2018-06-22T04:48:41.800Z,37.50
2018-06-22T04:51:16.716Z,37.80
2018-06-22T04:53:48.718Z,38.30
2018-06-22T04:56:22.946Z,39.30
2018-06-22T05:01:28.071Z,41.10
2018-06-22T05:06:31.543Z,42.20
2018-06-22T05:09:05.870Z,42.40
2018-06-22T05:11:37.497Z,42.50
2018-06-22T05:14:09.345Z,42.10
2018-06-22T05:16:41.228Z,41.90
2018-06-22T05:19:12.927Z,41.50
2018-06-22T05:21:44.318Z,41.20
2018-06-22T05:24:16.166Z,40.80
2018-06-22T05:26:47.962Z,41.10
2018-06-22T05:29:19.690Z,42.30
2018-06-22T05:31:51.336Z,42.50
2018-06-22T05:34:23.256Z,43.30
2018-06-22T05:36:54.906Z,43.80
2018-06-22T05:39:26.968Z,43.30
2018-06-22T05:41:58.371Z,44.40
2018-06-22T05:44:30.437Z,43.70
2018-06-22T05:47:02.170Z,44.00
2018-06-22T05:49:34.360Z,43.40
2018-06-22T05:52:06.127Z,43.30
2018-06-22T05:54:37.957Z,43.30
2018-06-22T05:57:09.469Z,42.50
2018-06-22T05:59:41.651Z,42.50
2018-06-22T06:02:14.525Z,42.20
2018-06-22T06:04:46.441Z,42.30
2018-06-22T06:07:17.971Z,42.40
2018-06-22T06:09:49.928Z,42.20
2018-06-22T06:12:21.685Z,42.10
2018-06-22T06:14:53.985Z,42.60
2018-06-22T06:17:25.847Z,43.30
2018-06-22T06:19:58.116Z,44.10
2018-06-22T06:22:29.843Z,44.80
2018-06-22T06:27:32.707Z,45.70
2018-06-22T06:32:35.425Z,46.60
2018-06-22T06:35:07.334Z,46.00
2018-06-22T06:37:39.265Z,46.30
2018-06-22T06:40:11.565Z,45.90
2018-06-22T06:42:43.460Z,45.70
2018-06-22T06:47:46.203Z,45.00
2018-06-22T06:52:49.193Z,43.90
2018-06-22T06:55:21.179Z,43.80
2018-06-22T06:57:52.944Z,43.70
2018-06-22T07:00:25.590Z,43.60
2018-06-22T07:02:58.474Z,43.60
2018-06-22T07:05:30.515Z,43.70
2018-06-22T07:08:02.127Z,43.50
2018-06-22T07:10:38.603Z,43.40
2018-06-22T07:13:10.266Z,43.40
2018-06-22T07:15:42.790Z,43.70
2018-06-22T07:20:45.587Z,44.20
2018-06-22T07:23:17.149Z,44.70
2018-06-22T07:25:48.982Z,45.10
2018-06-22T07:28:22.030Z,45.20
2018-06-22T07:33:24.856Z,45.90
2018-06-22T07:35:56.424Z,46.60
2018-06-22T07:38:28.159Z,46.70
2018-06-22T07:40:59.821Z,46.70
2018-06-22T07:43:31.475Z,46.50
2018-06-22T07:46:03.203Z,45.40
2018-06-22T07:48:34.882Z,44.60
2018-06-22T07:51:06.787Z,43.70
2018-06-22T07:53:38.269Z,43.10
2018-06-22T07:56:10.074Z,42.70
2018-06-22T07:58:41.729Z,42.40
2018-06-22T08:01:13.675Z,42.40
2018-06-22T08:03:46.310Z,42.30
2018-06-22T08:06:17.993Z,42.30
2018-06-22T08:08:49.785Z,42.20
2018-06-22T08:11:21.569Z,41.90
2018-06-22T08:13:53.675Z,42.00
2018-06-22T08:21:27.470Z,41.80
2018-06-22T08:23:59.015Z,41.70
2018-06-22T08:26:30.669Z,41.60
2018-06-22T08:29:02.343Z,41.70
2018-06-22T08:31:34.456Z,41.70
2018-06-22T08:39:10.569Z,41.70
2018-06-22T08:41:43.070Z,41.70
2018-06-22T08:44:14.899Z,41.80
2018-06-22T08:49:17.767Z,41.60
2018-06-22T08:51:49.475Z,41.90
2018-06-22T08:56:52.476Z,41.80
2018-06-22T08:59:23.920Z,41.70
2018-06-22T09:01:55.855Z,41.70
2018-06-22T09:04:28.963Z,41.70
2018-06-22T09:09:32.532Z,41.80
2018-06-22T09:12:04.366Z,41.80
2018-06-22T09:17:07.072Z,42.00
2018-06-22T09:19:38.720Z,42.10
2018-06-22T09:22:10.722Z,41.90
2018-06-22T09:24:42.384Z,41.80
2018-06-22T09:27:14.098Z,41.60
2018-06-22T09:29:45.755Z,41.70
2018-06-22T09:32:17.646Z,41.60
2018-06-22T09:34:49.311Z,41.60
2018-06-22T09:37:21.036Z,41.40
2018-06-22T09:39:52.845Z,41.50
2018-06-22T09:42:24.815Z,41.60
2018-06-22T09:44:56.652Z,41.40
2018-06-22T09:47:28.336Z,41.20
2018-06-22T09:49:59.990Z,41.30
2018-06-22T09:52:32.558Z,41.10
2018-06-22T09:55:04.061Z,41.30
2018-06-22T09:57:36.139Z,41.20
2018-06-22T10:00:07.718Z,41.00
2018-06-22T10:02:39.341Z,41.00
2018-06-22T10:05:12.050Z,40.90
2018-06-22T10:07:44.191Z,40.90
2018-06-22T10:10:15.560Z,41.00
2018-06-22T10:12:47.125Z,41.00
2018-06-22T10:15:18.873Z,40.90
2018-06-22T10:17:54.411Z,40.70
2018-06-22T10:20:26.058Z,40.70
2018-06-22T10:22:58.215Z,40.80
2018-06-22T10:25:29.981Z,40.90
2018-06-22T10:28:01.675Z,40.70
2018-06-22T10:30:33.388Z,40.80
2018-06-22T10:33:05.366Z,40.70
2018-06-22T10:35:36.997Z,40.50
2018-06-22T10:38:08.849Z,40.50
2018-06-22T10:40:40.453Z,40.40
2018-06-22T10:43:12.460Z,40.40
2018-06-22T10:45:44.134Z,40.40
2018-06-22T10:48:16.032Z,40.40
2018-06-22T10:50:47.694Z,40.30
2018-06-22T10:53:19.448Z,40.20
2018-06-22T10:58:22.272Z,40.20
2018-06-22T11:00:53.738Z,40.10
2018-06-22T11:03:25.768Z,40.00
2018-06-22T11:08:29.787Z,40.00
2018-06-22T11:11:01.471Z,39.90
2018-06-22T11:13:33.580Z,39.80
2018-06-22T11:16:05.013Z,39.80
2018-06-22T11:18:36.613Z,39.80
2018-06-22T11:21:08.263Z,39.70
2018-06-22T11:23:40.493Z,39.70
2018-06-22T11:26:12.083Z,39.70
2018-06-22T11:28:43.930Z,39.70
2018-06-22T11:31:15.857Z,39.70
2018-06-22T11:33:47.950Z,39.70
2018-06-22T11:36:19.856Z,39.70
2018-06-22T11:38:51.939Z,39.70
2018-06-22T11:41:23.762Z,39.60
2018-06-22T11:43:55.609Z,39.50
2018-06-22T11:46:27.230Z,39.40
2018-06-22T11:48:58.956Z,39.30
2018-06-22T11:51:30.749Z,39.30
2018-06-22T11:54:02.792Z,39.20
2018-06-22T11:56:34.715Z,39.20
2018-06-22T11:59:06.811Z,39.20
2018-06-22T12:04:09.762Z,39.20
2018-06-22T12:06:42.306Z,39.10
2018-06-22T12:11:46.126Z,38.90
2018-06-22T12:14:18.267Z,38.90
2018-06-22T12:16:50.149Z,38.90
2018-06-22T12:19:22.834Z,38.90
2018-06-22T12:21:54.461Z,38.70
2018-06-22T12:24:26.423Z,38.60
2018-06-22T12:26:57.850Z,38.50
2018-06-22T12:29:29.557Z,38.60
2018-06-22T12:32:01.448Z,38.50
2018-06-22T12:34:33.586Z,38.40
2018-06-22T12:37:05.293Z,38.40
2018-06-22T12:39:37.144Z,38.30
2018-06-22T12:44:40.214Z,38.20
2018-06-22T12:47:11.765Z,38.10
2018-06-22T12:49:43.603Z,38.10
2018-06-22T12:52:15.307Z,38.00
2018-06-22T12:54:47.233Z,38.00
2018-06-22T12:57:19.076Z,37.90
2018-06-22T12:59:50.678Z,37.80
2018-06-22T13:02:22.231Z,37.70
2018-06-22T13:07:26.285Z,37.60
2018-06-22T13:09:58.116Z,37.50
2018-06-22T13:15:01.061Z,37.50
2018-06-22T13:17:32.670Z,37.40
2018-06-22T13:20:04.525Z,37.40
2018-06-22T13:22:36.504Z,37.40
2018-06-22T13:25:08.588Z,37.20
2018-06-22T13:27:39.889Z,37.10
2018-06-22T13:30:11.908Z,37.10
2018-06-22T13:32:43.559Z,37.10
2018-06-22T13:35:15.137Z,36.90
2018-06-22T13:37:46.938Z,36.90
2018-06-22T13:40:19.087Z,36.80
2018-06-22T13:42:50.824Z,36.70
2018-06-22T13:45:22.455Z,36.60
2018-06-22T13:50:25.205Z,36.40
2018-06-22T13:52:56.847Z,36.40
2018-06-22T13:55:28.978Z,36.30
2018-06-22T13:58:00.543Z,36.30
2018-06-22T14:00:32.690Z,36.20
2018-06-22T14:08:11.793Z,36.10
2018-06-22T14:10:43.861Z,36.00
2018-06-22T14:13:15.775Z,35.90
2018-06-22T14:15:47.462Z,35.90
2018-06-22T14:18:19.715Z,35.80
2018-06-22T14:23:23.057Z,35.80
2018-06-22T14:25:54.971Z,35.70
2018-06-22T14:28:26.571Z,35.60
2018-06-22T14:30:58.632Z,35.50
2018-06-22T14:33:30.912Z,35.40
2018-06-22T14:38:34.039Z,35.40
2018-06-22T14:41:06.065Z,35.40
2018-06-22T14:43:37.797Z,35.30
2018-06-22T14:46:10.093Z,35.30
2018-06-22T14:48:41.824Z,35.20
2018-06-22T14:51:14.225Z,35.20
2018-06-22T14:53:50.727Z,35.10
2018-06-22T14:56:27.676Z,35.10
2018-06-22T15:00:07.429Z,35.00
2018-06-22T15:02:44.663Z,35.00
2018-06-22T15:05:21.417Z,34.90
2018-06-22T15:07:57.438Z,34.80
2018-06-22T15:10:29.978Z,34.70
2018-06-22T15:13:01.634Z,34.70
2018-06-22T15:15:33.299Z,34.70
2018-06-22T15:18:05.376Z,34.70
2018-06-22T15:20:37.243Z,34.60
2018-06-22T15:23:08.970Z,34.60
2018-06-22T15:25:40.597Z,34.50
2018-06-22T15:30:43.100Z,34.50
2018-06-22T15:33:19.879Z,34.40
2018-06-22T15:35:56.336Z,34.40
2018-06-22T15:38:33.070Z,34.30
2018-06-22T15:41:09.521Z,34.40
2018-06-22T15:44:44.725Z,34.40
2018-06-22T15:47:21.480Z,34.40
2018-06-22T15:49:58.136Z,34.30
2018-06-22T15:52:34.530Z,34.30
2018-06-22T15:55:09.287Z,34.30
2018-06-22T16:00:13.656Z,34.20
2018-06-22T16:02:50.108Z,34.20
2018-06-22T16:05:22.350Z,34.20
2018-06-22T16:07:54.370Z,34.20
2018-06-22T16:10:26.142Z,34.10
2018-06-22T16:13:00.315Z,34.10
2018-06-22T16:15:37.558Z,34.20
2018-06-22T16:18:13.997Z,34.10
2018-06-22T16:20:50.973Z,34.10
2018-06-22T16:23:27.367Z,34.10
2018-06-22T16:26:04.411Z,34.10
2018-06-22T16:28:36.145Z,34.10
2018-06-22T16:31:08.141Z,34.10
2018-06-22T16:33:44.271Z,34.10
2018-06-22T16:36:16.022Z,34.10
2018-06-22T16:38:47.597Z,34.10
2018-06-22T16:41:19.435Z,34.10
2018-06-22T16:43:51.511Z,34.10
2018-06-22T16:46:23.603Z,34.00
2018-06-22T16:48:55.483Z,34.00
2018-06-22T16:51:27.245Z,34.00
2018-06-22T16:53:58.826Z,34.00
2018-06-22T16:56:30.823Z,34.00
2018-06-22T16:59:03.066Z,33.90
2018-06-22T17:01:35.069Z,33.90
2018-06-22T17:06:42.640Z,33.90
2018-06-22T17:09:19.194Z,33.90
2018-06-22T17:11:57.129Z,34.00
2018-06-22T17:17:09.403Z,34.00
2018-06-22T17:19:41.507Z,34.00
2018-06-22T17:22:13.596Z,34.00
2018-06-22T17:24:45.540Z,33.90
2018-06-22T17:27:17.869Z,33.90
2018-06-22T17:29:49.781Z,33.80
2018-06-22T17:32:21.971Z,33.80
2018-06-22T17:34:54.083Z,33.80
2018-06-22T17:37:27.027Z,33.80
2018-06-22T17:39:58.781Z,33.80
2018-06-22T17:42:30.879Z,33.80
2018-06-22T17:45:02.931Z,33.80
2018-06-22T17:47:35.009Z,33.80
2018-06-22T17:50:11.673Z,33.80
2018-06-22T17:52:43.625Z,33.80
2018-06-22T17:55:15.367Z,33.80
2018-06-22T17:57:47.412Z,33.70
2018-06-22T18:00:23.950Z,33.70
2018-06-22T18:05:35.995Z,33.70
2018-06-22T18:08:13.050Z,33.70
2018-06-22T18:10:49.770Z,33.70
2018-06-22T18:13:22.517Z,33.70
2018-06-22T18:15:54.415Z,33.70
2018-06-22T18:20:57.975Z,33.60
2018-06-22T18:23:30.534Z,33.60
2018-06-22T18:26:02.242Z,33.60
2018-06-22T18:28:35.294Z,33.60
2018-06-22T18:31:07.111Z,33.50
2018-06-22T18:33:39.728Z,33.50
2018-06-22T18:36:11.327Z,33.50
2018-06-22T18:38:44.167Z,33.50
2018-06-22T18:41:16.148Z,33.40
2018-06-22T18:46:24.261Z,33.40
2018-06-22T18:48:56.472Z,33.40
2018-06-22T18:51:28.471Z,33.40
2018-06-22T18:55:07.429Z,33.30
2018-06-22T18:57:44.201Z,33.40
2018-06-22T19:00:20.549Z,33.30
2018-06-22T19:02:57.123Z,33.30
2018-06-22T19:05:29.104Z,33.30
2018-06-22T19:08:00.793Z,33.20
2018-06-22T19:10:32.803Z,33.20
2018-06-22T19:13:04.597Z,33.20
2018-06-22T19:15:37.706Z,33.20
2018-06-22T19:18:09.459Z,33.20
2018-06-22T19:20:41.912Z,33.10
2018-06-22T19:23:13.794Z,33.10
2018-06-22T19:28:16.547Z,33.10
2018-06-22T19:30:49.388Z,33.00
2018-06-22T19:33:21.063Z,33.00
2018-06-22T19:38:24.144Z,33.00
2018-06-22T19:40:56.219Z,32.90
2018-06-22T19:43:32.949Z,32.90
2018-06-22T19:46:09.771Z,32.90
2018-06-22T19:48:48.230Z,32.80
2018-06-22T19:51:25.058Z,32.80
2018-06-22T19:54:01.113Z,32.80
2018-06-22T19:56:33.069Z,32.80
2018-06-22T19:59:04.727Z,32.80
2018-06-22T20:01:36.755Z,32.80
2018-06-22T20:04:08.886Z,32.80
2018-06-22T20:06:41.149Z,32.80
2018-06-22T20:09:12.928Z,32.70
2018-06-22T20:11:45.068Z,32.70
2018-06-22T20:14:17.367Z,32.70
2018-06-22T20:16:50.348Z,32.70
2018-06-22T20:19:22.287Z,32.70
2018-06-22T20:21:54.259Z,32.80
2018-06-22T20:24:30.750Z,32.70
2018-06-22T20:27:02.715Z,32.70
2018-06-22T20:29:34.563Z,32.60
2018-06-22T20:32:09.863Z,32.50
2018-06-22T20:34:46.344Z,32.50
2018-06-22T20:37:22.924Z,32.50
2018-06-22T20:39:59.563Z,32.40
2018-06-22T20:42:36.490Z,32.40
2018-06-22T20:45:13.349Z,32.30
2018-06-22T20:47:50.094Z,32.30
2018-06-22T20:50:27.031Z,32.20
2018-06-22T20:52:59.387Z,32.20
2018-06-22T20:55:31.282Z,32.20
2018-06-22T21:00:33.856Z,32.10
2018-06-22T21:03:05.767Z,32.10
2018-06-22T21:05:37.563Z,32.00
2018-06-22T21:08:09.575Z,32.00
2018-06-22T21:10:41.560Z,32.00
2018-06-22T21:13:13.922Z,32.00
2018-06-22T21:18:18.599Z,31.90
2018-06-22T21:20:55.509Z,31.90
2018-06-22T21:23:27.725Z,31.90
2018-06-22T21:25:59.670Z,31.90
2018-06-22T21:28:36.383Z,31.90
2018-06-22T21:31:12.836Z,31.90
2018-06-22T21:33:49.325Z,31.90
2018-06-22T21:36:25.842Z,31.90
2018-06-22T21:39:00.978Z,31.80
2018-06-22T21:41:32.750Z,31.80
2018-06-22T21:44:05.311Z,31.80
2018-06-22T21:46:37.101Z,31.80
2018-06-22T21:49:09.203Z,31.80
2018-06-22T21:51:41.027Z,31.90
2018-06-22T21:54:13.091Z,31.80
2018-06-22T21:56:44.930Z,31.70
2018-06-22T21:59:17.672Z,31.80
2018-06-22T22:01:49.457Z,31.80
2018-06-22T22:06:52.423Z,31.80
2018-06-22T22:09:24.399Z,31.70
2018-06-22T22:11:56.640Z,31.70
2018-06-22T22:14:28.655Z,31.70
2018-06-22T22:17:00.628Z,31.70
2018-06-22T22:19:34.867Z,31.70
2018-06-22T22:22:06.625Z,31.70
2018-06-22T22:24:38.803Z,31.60
2018-06-22T22:27:10.486Z,31.60
2018-06-22T22:34:45.691Z,31.50
2018-06-22T22:37:17.536Z,31.40
2018-06-22T22:39:49.731Z,31.40
2018-06-22T22:42:21.479Z,31.40
2018-06-22T22:44:53.570Z,31.50
2018-06-22T22:47:25.330Z,31.40
2018-06-22T22:49:57.258Z,31.20
2018-06-22T22:52:28.998Z,31.20
2018-06-22T22:55:00.805Z,31.20
2018-06-22T22:57:33.183Z,31.20
2018-06-22T23:00:05.510Z,31.10
2018-06-22T23:02:37.057Z,31.10
2018-06-22T23:07:39.806Z,31.00
2018-06-22T23:10:12.006Z,31.00
2018-06-22T23:12:43.753Z,30.70
2018-06-22T23:15:15.839Z,30.80
2018-06-22T23:17:47.786Z,30.80
2018-06-22T23:20:21.077Z,30.90
2018-06-22T23:23:02.710Z,30.90
2018-06-22T23:25:34.669Z,30.90
2018-06-22T23:28:06.591Z,30.90
2018-06-22T23:30:38.515Z,30.90
2018-06-22T23:33:10.266Z,30.80
2018-06-22T23:35:42.057Z,30.80
2018-06-22T23:38:13.883Z,30.80
2018-06-22T23:40:45.909Z,30.80
2018-06-22T23:43:17.946Z,30.80
2018-06-22T23:45:49.938Z,30.80
2018-06-22T23:48:21.871Z,30.70
2018-06-22T23:50:53.817Z,30.70
2018-06-22T23:53:25.914Z,30.70
2018-06-22T23:55:58.169Z,30.60
2018-06-22T23:58:30.042Z,30.60
